createdAt,value
2023-05-06T00:00:17.446Z,26.27
2023-05-06T00:02:44.398Z,27.85
2023-05-06T00:05:11.557Z,26.80
2023-05-06T00:07:39.147Z,23.75
2023-05-06T00:10:09.107Z,24.10
2023-05-06T00:12:36.062Z,20.42
2023-05-06T00:15:03.283Z,23.67
2023-05-06T00:17:30.100Z,27.35
2023-05-06T00:19:59.044Z,23.17
2023-05-06T00:22:26.092Z,23.80
2023-05-06T00:24:52.925Z,28.38
2023-05-06T00:27:20.005Z,23.05
2023-05-06T00:29:46.944Z,21.77
2023-05-06T00:32:15.362Z,25.63
2023-05-06T00:34:45.485Z,20.15
2023-05-06T00:37:12.507Z,21.08
2023-05-06T00:39:39.450Z,20.73
2023-05-06T00:42:06.608Z,19.08
2023-05-06T00:44:33.542Z,21.83
2023-05-06T00:47:01.969Z,19.50
2023-05-06T00:49:30.835Z,19.67
2023-05-06T00:51:59.071Z,28.73
2023-05-06T00:54:26.968Z,22.15
2023-05-06T00:56:54.676Z,21.00
2023-05-06T00:59:23.441Z,21.85
2023-05-06T01:01:52.245Z,20.80
2023-05-06T01:04:19.548Z,20.02
2023-05-06T01:06:57.962Z,25.42
2023-05-06T01:09:32.174Z,21.90
2023-05-06T01:12:08.328Z,18.85
2023-05-06T01:14:58.673Z,18.48
2023-05-06T01:17:31.029Z,21.83
2023-05-06T01:20:02.900Z,21.40
2023-05-06T01:22:31.541Z,19.48
2023-05-06T01:24:58.373Z,22.48
2023-05-06T01:27:25.527Z,15.93
2023-05-06T01:29:52.383Z,21.15
2023-05-06T01:32:47.126Z,19.75
2023-05-06T01:35:38.645Z,22.92
2023-05-06T01:38:26.662Z,24.40
2023-05-06T01:40:57.194Z,22.20
2023-05-06T01:43:33.721Z,25.63
2023-05-06T01:46:01.593Z,24.27
2023-05-06T01:48:33.989Z,23.40
2023-05-06T01:51:01.830Z,24.50
2023-05-06T01:53:29.435Z,21.15
2023-05-06T01:55:56.587Z,22.80
2023-05-06T01:58:23.419Z,23.65
2023-05-06T02:00:50.539Z,23.08
2023-05-06T02:03:17.462Z,23.67
2023-05-06T02:05:46.212Z,26.48
2023-05-06T02:08:13.173Z,25.42
2023-05-06T02:10:40.029Z,23.35
2023-05-06T02:13:07.234Z,26.90
2023-05-06T02:15:34.362Z,27.15
2023-05-06T02:18:01.624Z,21.45
2023-05-06T02:20:28.527Z,23.52
2023-05-06T02:22:55.585Z,27.23
2023-05-06T02:25:23.007Z,32.97
2023-05-06T02:27:50.039Z,28.35
2023-05-06T02:30:16.956Z,26.20
2023-05-06T02:32:44.048Z,26.63
2023-05-06T02:35:11.562Z,24.33
2023-05-06T02:37:38.853Z,23.48
2023-05-06T02:40:06.741Z,25.65
2023-05-06T02:42:36.087Z,24.95
2023-05-06T02:45:08.091Z,25.20
2023-05-06T02:47:35.361Z,25.67
2023-05-06T02:50:02.971Z,25.75
2023-05-06T02:52:31.089Z,23.25
2023-05-06T02:54:57.907Z,24.73
2023-05-06T02:57:24.920Z,25.55
2023-05-06T02:59:53.190Z,21.98
2023-05-06T03:02:20.362Z,25.83
2023-05-06T03:04:47.412Z,20.98
2023-05-06T03:07:15.222Z,25.42
2023-05-06T03:09:41.995Z,25.70
2023-05-06T03:12:08.832Z,24.23
2023-05-06T03:14:35.612Z,27.33
2023-05-06T03:17:02.412Z,27.88
2023-05-06T03:19:29.213Z,26.60
2023-05-06T03:21:56.417Z,26.17
2023-05-06T03:24:23.471Z,26.17
2023-05-06T03:26:50.742Z,20.92
2023-05-06T03:29:18.378Z,28.25
2023-05-06T03:31:45.610Z,29.60
2023-05-06T03:34:12.781Z,34.47
2023-05-06T03:36:39.695Z,25.95
2023-05-06T03:39:07.791Z,24.80
2023-05-06T03:41:34.716Z,27.45
2023-05-06T03:44:02.044Z,24.52
2023-05-06T03:46:29.172Z,27.67
2023-05-06T03:48:56.397Z,28.88
2023-05-06T03:51:23.255Z,23.75
2023-05-06T03:53:50.598Z,28.17
2023-05-06T03:56:19.139Z,25.77
2023-05-06T03:58:46.048Z,24.60
2023-05-06T04:01:14.750Z,26.98
2023-05-06T04:03:41.694Z,28.50
2023-05-06T04:06:08.913Z,25.58
2023-05-06T04:08:36.081Z,23.35
2023-05-06T04:11:08.123Z,26.92
2023-05-06T04:13:35.870Z,24.23
2023-05-06T04:16:03.340Z,25.55
2023-05-06T04:18:30.921Z,26.10
2023-05-06T04:20:57.769Z,23.88
2023-05-06T04:23:24.615Z,26.65
2023-05-06T04:25:52.057Z,24.30
2023-05-06T04:28:21.907Z,25.35
2023-05-06T04:30:48.974Z,24.77
2023-05-06T04:33:16.135Z,24.88
2023-05-06T04:35:53.869Z,25.80
2023-05-06T04:38:27.421Z,23.23
2023-05-06T04:43:22.167Z,21.98
2023-05-06T04:45:52.837Z,18.98
2023-05-06T04:48:22.386Z,20.80
2023-05-06T04:50:50.657Z,20.50
2023-05-06T04:53:17.951Z,19.10
2023-05-06T04:55:44.772Z,19.35
2023-05-06T04:58:11.533Z,19.95
2023-05-06T05:00:38.417Z,18.77
2023-05-06T05:03:05.610Z,17.83
2023-05-06T05:05:34.858Z,18.50
2023-05-06T05:08:01.663Z,18.73
2023-05-06T05:10:28.668Z,18.85
2023-05-06T05:12:55.623Z,17.55
2023-05-06T05:15:22.776Z,15.95
2023-05-06T05:17:51.321Z,17.05
2023-05-06T05:20:18.198Z,16.65
2023-05-06T05:26:02.084Z,11.82
2023-05-06T05:28:28.953Z,13.82
2023-05-06T05:31:01.437Z,12.32
2023-05-06T05:33:28.631Z,12.27
2023-05-06T05:35:55.661Z,10.90
2023-05-06T05:38:22.998Z,13.10
2023-05-06T05:40:49.920Z,11.50
2023-05-06T05:43:16.726Z,11.93
2023-05-06T05:45:43.555Z,11.20
2023-05-06T05:48:10.416Z,11.18
2023-05-06T05:50:37.278Z,12.80
2023-05-06T05:53:04.184Z,11.85
2023-05-06T05:55:31.369Z,11.93
2023-05-06T05:57:58.380Z,11.50
2023-05-06T06:00:25.360Z,12.93
2023-05-06T06:02:52.297Z,13.57
2023-05-06T06:05:19.205Z,13.20
2023-05-06T06:07:46.175Z,13.73
2023-05-06T06:10:14.414Z,8.65
2023-05-06T06:12:41.529Z,9.38
2023-05-06T10:43:25.443Z,2.95
2023-05-06T10:46:17.308Z,5.05
2023-05-06T10:49:12.248Z,4.20
2023-05-06T10:51:42.334Z,3.00
2023-05-06T10:54:09.908Z,1.23
2023-05-06T10:57:00.336Z,2.45
2023-05-06T10:59:30.003Z,2.40
2023-05-06T11:02:10.896Z,2.42
2023-05-06T11:04:38.939Z,3.83
2023-05-06T11:07:11.233Z,3.45
2023-05-06T11:09:57.193Z,3.15
2023-05-06T11:12:45.252Z,1.60
2023-05-06T11:15:36.564Z,1.92
2023-05-06T11:18:28.918Z,1.75
2023-05-06T11:21:02.548Z,3.80
2023-05-06T11:23:58.956Z,2.30
2023-05-06T11:26:26.016Z,3.58
2023-05-06T11:28:52.827Z,3.20
2023-05-06T11:31:22.481Z,1.95
2023-05-06T11:33:55.376Z,2.58
2023-05-06T11:38:54.401Z,0.98
2023-05-06T11:41:23.171Z,2.05
2023-05-06T11:43:52.726Z,19.48
2023-05-06T11:46:21.272Z,1.88
2023-05-06T11:48:48.489Z,3.08
2023-05-06T11:51:16.311Z,1.27
2023-05-06T11:53:43.244Z,5.53
2023-05-06T11:56:10.669Z,0.90
2023-05-06T11:58:37.752Z,1.05
2023-05-06T12:01:04.977Z,3.83
2023-05-06T12:03:33.558Z,1.98
2023-05-06T12:06:01.228Z,3.38
2023-05-06T12:08:32.296Z,2.63
2023-05-06T12:11:02.176Z,0.90
2023-05-06T12:13:29.944Z,4.00
2023-05-06T12:15:59.264Z,2.40
2023-05-06T12:18:26.977Z,1.45
2023-05-06T12:20:55.166Z,2.60
2023-05-06T12:23:22.422Z,1.20
2023-05-06T12:26:04.337Z,1.85
2023-05-06T12:28:33.383Z,1.15
2023-05-06T12:31:22.842Z,2.22
2023-05-06T12:33:50.537Z,1.77
2023-05-06T12:36:23.191Z,5.15
2023-05-06T12:38:54.552Z,2.50
2023-05-06T12:41:22.287Z,1.60
2023-05-06T12:43:49.397Z,2.17
2023-05-06T12:46:17.152Z,4.60
2023-05-06T12:49:03.421Z,1.38
2023-05-06T12:51:34.217Z,1.13
2023-05-06T12:54:07.766Z,2.53
2023-05-06T12:56:39.448Z,3.00
2023-05-06T12:59:11.032Z,2.03
2023-05-06T13:01:40.916Z,2.15
2023-05-06T13:04:10.117Z,0.60
2023-05-06T16:42:30.426Z,6.95
2023-05-06T16:44:57.306Z,5.07
2023-05-06T16:47:24.385Z,3.10
2023-05-06T16:49:51.594Z,17.88
2023-05-06T16:52:19.206Z,5.55
2023-05-06T16:54:47.115Z,4.13
2023-05-06T16:57:14.010Z,47.33
2023-05-06T16:59:40.864Z,11.18
2023-05-06T17:02:07.729Z,5.65
2023-05-06T17:04:34.589Z,5.35
2023-05-06T17:07:01.408Z,4.53
2023-05-06T17:09:28.198Z,5.03
2023-05-06T17:11:55.067Z,6.30
2023-05-06T17:14:23.424Z,5.90
2023-05-06T17:16:52.116Z,3.42
2023-05-06T17:19:19.013Z,4.85
2023-05-06T17:21:45.949Z,4.72
2023-05-06T17:24:12.828Z,6.47
2023-05-06T17:26:40.879Z,4.70
2023-05-06T17:29:07.911Z,3.65
2023-05-06T17:31:35.323Z,4.32
2023-05-06T17:34:02.476Z,6.38
2023-05-06T17:36:29.401Z,6.97
2023-05-06T17:39:04.734Z,4.10
2023-05-06T17:41:32.084Z,4.65
2023-05-06T17:43:59.271Z,4.13
2023-05-06T17:46:26.683Z,4.13
2023-05-06T17:48:53.779Z,6.15
2023-05-06T17:51:20.995Z,3.75
2023-05-06T17:53:47.915Z,5.40
2023-05-06T17:56:15.020Z,3.08
2023-05-06T17:58:41.809Z,3.92
2023-05-06T18:01:09.015Z,4.70
2023-05-06T18:03:36.046Z,4.88
2023-05-06T18:06:03.000Z,3.65
2023-05-06T18:08:29.892Z,2.60
2023-05-06T18:10:56.827Z,5.93
2023-05-06T18:13:23.728Z,5.70
2023-05-06T18:15:50.543Z,4.97
2023-05-06T18:18:20.079Z,4.38
2023-05-06T18:20:46.985Z,4.03
2023-05-06T18:23:13.879Z,3.25
2023-05-06T18:25:40.647Z,2.90
2023-05-06T18:28:07.844Z,3.03
2023-05-06T18:30:34.706Z,3.17
2023-05-06T18:33:01.801Z,5.03
2023-05-06T18:35:28.943Z,6.40
2023-05-06T22:42:06.801Z,7.53
2023-05-06T22:44:33.638Z,12.60
2023-05-06T22:47:00.679Z,8.73
2023-05-06T22:49:28.913Z,8.90
2023-05-06T22:51:57.086Z,6.95
2023-05-06T22:54:24.578Z,9.50
2023-05-06T22:56:51.768Z,10.43
2023-05-06T22:59:18.598Z,11.43
2023-05-06T23:01:45.484Z,9.43
2023-05-06T23:04:13.475Z,6.68
2023-05-06T23:06:41.087Z,8.05
2023-05-06T23:09:08.275Z,9.18
2023-05-06T23:11:35.144Z,8.65
2023-05-06T23:14:01.998Z,6.50
2023-05-06T23:16:29.979Z,11.15
2023-05-06T23:18:57.450Z,8.20
2023-05-06T23:21:24.457Z,10.20
2023-05-06T23:23:51.277Z,6.40
2023-05-06T23:26:18.515Z,7.32
2023-05-06T23:28:45.823Z,7.40
2023-05-06T23:31:13.123Z,7.60
2023-05-06T23:33:39.974Z,6.95
2023-05-06T23:36:07.199Z,6.80
2023-05-06T23:38:34.123Z,10.32
2023-05-06T23:41:00.862Z,8.35
2023-05-06T23:43:28.407Z,7.40
2023-05-06T23:45:55.661Z,12.05
2023-05-06T23:48:22.455Z,8.43
2023-05-06T23:50:49.416Z,7.90
2023-05-06T23:53:16.527Z,7.85
2023-05-06T23:55:43.908Z,9.40
2023-05-06T23:58:10.830Z,7.95
